Time;durP1;ratioP1;P1;durP2;ratioP2;P2;SDS_P1;SDS_P2;PMS_P1;PMS_P2;Temp;Humidity;BMP_temperature;BMP_pressure;BME280_temperature;BME280_humidity;BME280_pressure;Samples;Min_cycle;Max_cycle;Signal;HPM_P1;HPM_P2
2023/10/01 00:00:11;;;;;;;10.85;7.53;;;;;;;13.08;100.00;102236.75;5094624;28;20030;-72
2023/10/01 00:02:38;;;;;;;13.32;8.13;;;;;;;13.01;100.00;102241.31;5081484;28;20482;-70
2023/10/01 00:05:05;;;;;;;9.10;7.38;;;;;;;13.09;100.00;102238.41;5090902;28;20036;-71
2023/10/01 00:07:31;;;;;;;9.00;7.30;;;;;;;13.02;100.00;102234.84;5094246;28;20035;-70
2023/10/01 00:09:56;;;;;;;11.00;7.15;;;;;;;13.08;100.00;102239.47;5093111;28;20032;-70
2023/10/01 00:12:23;;;;;;;10.13;7.68;;;;;;;13.00;100.00;102241.53;5092395;28;20044;-71
2023/10/01 00:14:52;;;;;;;12.00;7.75;;;;;;;12.96;100.00;102246.56;5094355;28;20064;-70
2023/10/01 00:17:18;;;;;;;11.27;7.50;;;;;;;13.00;100.00;102239.66;5093099;28;20032;-70
2023/10/01 00:19:45;;;;;;;8.38;7.05;;;;;;;13.00;100.00;102238.81;5091077;28;20028;-70
2023/10/01 00:22:10;;;;;;;10.75;5.68;;;;;;;13.15;100.00;102239.47;5092197;28;20103;-71
2023/10/01 00:24:35;;;;;;;9.82;7.40;;;;;;;12.96;100.00;102240.28;5093891;28;20059;-71
2023/10/01 00:27:01;;;;;;;9.75;7.07;;;;;;;12.98;100.00;102241.75;5083671;28;20055;-71
2023/10/01 00:29:27;;;;;;;11.38;7.80;;;;;;;12.89;100.00;102245.69;5073646;28;20029;-71
2023/10/01 00:31:52;;;;;;;9.40;6.95;;;;;;;12.91;100.00;102244.47;5072384;28;20123;-71
2023/10/01 00:34:18;;;;;;;10.25;7.22;;;;;;;12.92;100.00;102242.56;5072834;28;20516;-71
2023/10/01 00:36:43;;;;;;;9.13;7.05;;;;;;;12.91;100.00;102230.06;5073502;28;20036;-71
2023/10/01 00:39:09;;;;;;;12.45;6.95;;;;;;;12.93;100.00;102239.66;5089121;28;20035;-70
2023/10/01 00:41:35;;;;;;;10.20;6.90;;;;;;;12.90;100.00;102237.34;5072822;28;20028;-71
2023/10/01 00:44:02;;;;;;;9.82;6.68;;;;;;;12.90;100.00;102237.34;5072188;28;20060;-71
2023/10/01 00:46:29;;;;;;;13.43;7.10;;;;;;;12.84;100.00;102230.03;5073191;28;20036;-71
2023/10/01 00:48:56;;;;;;;12.13;6.80;;;;;;;12.75;100.00;102231.25;5073794;28;20108;-72
2023/10/01 00:51:21;;;;;;;11.95;6.78;;;;;;;12.78;100.00;102217.25;5093356;28;20032;-71
2023/10/01 00:53:49;;;;;;;12.02;6.70;;;;;;;12.79;100.00;102215.38;5093609;28;20357;-72
2023/10/01 00:56:15;;;;;;;12.88;6.25;;;;;;;12.76;100.00;102211.22;5093397;28;20072;-72
2023/10/01 00:58:40;;;;;;;9.50;6.25;;;;;;;12.77;100.00;102212.88;5092877;28;20500;-71
2023/10/01 01:01:08;;;;;;;11.80;6.70;;;;;;;12.79;100.00;102209.94;5091096;28;20036;-72
2023/10/01 01:03:35;;;;;;;9.00;6.53;;;;;;;12.74;100.00;102205.13;5092351;28;20036;-72
2023/10/01 01:06:13;;;;;;;11.27;6.35;;;;;;;12.76;100.00;102203.06;5092546;28;20488;-72
2023/10/01 01:08:49;;;;;;;8.52;5.97;;;;;;;12.72;100.00;102197.19;5091877;28;20028;-72
2023/10/01 01:11:18;;;;;;;9.77;6.22;;;;;;;12.73;100.00;102198.03;5092070;28;20120;-72
2023/10/01 01:13:45;;;;;;;10.45;6.13;;;;;;;12.71;100.00;102192.81;5090671;28;20965;-72
2023/10/01 01:16:12;;;;;;;11.25;6.00;;;;;;;12.71;100.00;102186.53;5072864;28;20047;-72
2023/10/01 01:18:41;;;;;;;7.68;5.63;;;;;;;12.72;100.00;102189.03;5071319;28;20511;-72
2023/10/01 01:21:10;;;;;;;11.98;6.25;;;;;;;12.74;100.00;102177.97;5071333;28;20114;-71
2023/10/01 01:23:36;;;;;;;10.02;5.85;;;;;;;12.77;100.00;102182.97;5072531;28;20029;-72
2023/10/01 01:26:02;;;;;;;9.75;6.40;;;;;;;12.76;100.00;102186.75;5071401;28;20186;-72
2023/10/01 01:28:30;;;;;;;10.90;6.05;;;;;;;12.80;100.00;102187.19;5073934;28;20032;-71
2023/10/01 01:30:59;;;;;;;10.40;6.05;;;;;;;12.76;100.00;102189.47;5092908;28;20024;-71
2023/10/01 01:34:12;;;;;;;10.95;5.80;;;;;;;12.73;100.00;102179.88;5090864;28;20364;-71
2023/10/01 01:36:12;;;;;;;10.38;5.95;;;;;;;12.77;100.00;102185.69;5061733;28;20041;-71
2023/10/01 01:39:09;;;;;;;10.50;6.32;;;;;;;12.74;100.00;102178.81;5072416;28;20020;-71
2023/10/01 01:41:48;;;;;;;10.52;6.18;;;;;;;12.79;100.00;102178.19;5072284;28;20024;-71
2023/10/01 01:44:14;;;;;;;9.45;5.88;;;;;;;12.73;100.00;102174.44;5080023;28;20063;-71
2023/10/01 01:46:49;;;;;;;8.73;5.60;;;;;;;12.73;100.00;102169.00;5072296;28;20072;-70
2023/10/01 01:49:19;;;;;;;11.77;6.30;;;;;;;12.76;100.00;102175.91;5087957;28;20020;-71
2023/10/01 01:51:57;;;;;;;11.63;6.10;;;;;;;12.83;100.00;102165.88;5072301;28;20036;-72
2023/10/01 01:54:27;;;;;;;11.65;6.30;;;;;;;12.84;100.00;102167.53;5072197;28;20032;-71
2023/10/01 01:56:55;;;;;;;8.15;5.60;;;;;;;12.85;100.00;102169.22;5086144;28;20033;-72
2023/10/01 01:59:23;;;;;;;9.30;6.07;;;;;;;12.80;100.00;102177.13;5085685;28;20044;-72
2023/10/01 02:01:49;;;;;;;10.75;5.90;;;;;;;12.82;100.00;102175.06;5070070;28;20444;-71
2023/10/01 02:04:14;;;;;;;8.30;5.57;;;;;;;12.74;100.00;102170.69;5072224;28;20050;-71
2023/10/01 02:06:42;;;;;;;13.75;5.88;;;;;;;12.71;100.00;102178.38;5086407;28;20081;-72
2023/10/01 02:09:12;;;;;;;8.80;5.82;;;;;;;12.66;100.00;102170.03;5089080;28;20050;-72
2023/10/01 02:11:38;;;;;;;9.20;5.90;;;;;;;12.68;100.00;102168.78;5091909;28;20041;-71
2023/10/01 02:14:05;;;;;;;10.35;6.10;;;;;;;12.69;100.00;102173.16;5091112;28;20422;-71
2023/10/01 02:16:42;;;;;;;10.25;6.18;;;;;;;12.72;100.00;102163.78;5090723;28;20070;-71
2023/10/01 02:19:21;;;;;;;11.80;6.00;;;;;;;12.72;100.00;102158.34;5092144;28;20035;-72
2023/10/01 02:21:52;;;;;;;11.45;6.30;;;;;;;12.65;100.00;102157.50;5091875;28;20051;-71
2023/10/01 02:24:23;;;;;;;9.90;5.97;;;;;;;12.59;100.00;102149.13;5091144;28;20085;-71
2023/10/01 02:26:53;;;;;;;7.18;3.38;;;;;;;12.80;100.00;102154.59;5091630;28;20463;-71
2023/10/01 02:29:25;;;;;;;9.88;5.82;;;;;;;12.64;100.00;102150.41;5091026;28;20034;-72
2023/10/01 02:31:56;;;;;;;8.05;5.55;;;;;;;12.64;100.00;102155.84;5091441;28;20040;-72
2023/10/01 02:34:23;;;;;;;6.95;5.18;;;;;;;12.67;100.00;102150.00;5093808;28;20024;-70
2023/10/01 02:36:49;;;;;;;9.43;5.75;;;;;;;12.63;100.00;102149.53;5075849;28;20025;-72
2023/10/01 02:39:21;;;;;;;9.18;5.70;;;;;;;12.62;100.00;102153.31;5076225;28;20345;-71
2023/10/01 02:42:03;;;;;;;9.13;5.53;;;;;;;12.58;100.00;102155.59;5074559;28;20414;-72
2023/10/01 02:44:29;;;;;;;11.40;5.93;;;;;;;12.63;100.00;102162.31;5075690;28;20028;-71
2023/10/01 02:46:58;;;;;;;8.65;5.72;;;;;;;12.54;100.00;102164.38;5075111;28;20033;-71
2023/10/01 02:49:23;;;;;;;6.28;3.60;;;;;;;12.73;100.00;102160.03;5078138;28;20038;-72
2023/10/01 02:51:49;;;;;;;10.20;5.97;;;;;;;12.57;100.00;102172.94;5095575;28;20403;-72
2023/10/01 02:54:20;;;;;;;7.75;3.25;;;;;;;12.72;100.00;102161.88;5094322;28;20028;-71
2023/10/01 03:02:25;;;;;;;10.13;6.30;;;;;;;12.50;100.00;102165.81;5093046;28;20101;-71
2023/10/01 03:04:51;;;;;;;8.40;5.85;;;;;;;12.51;100.00;102162.06;5084620;28;20036;-71
2023/10/01 03:07:17;;;;;;;8.52;5.82;;;;;;;12.46;100.00;102162.69;5075448;28;20036;-71
2023/10/01 03:09:43;;;;;;;7.95;3.70;;;;;;;12.65;100.00;102163.78;5079876;28;20123;-72
2023/10/01 03:12:24;;;;;;;9.18;5.85;;;;;;;12.47;100.00;102166.22;5093810;28;20130;-72
2023/10/01 03:17:38;;;;;;;10.32;6.30;;;;;;;12.46;100.00;102149.09;5095217;28;20502;-71
2023/10/01 03:22:52;;;;;;;11.70;6.28;;;;;;;12.40;100.00;102155.38;5095271;28;20083;-72
2023/10/01 03:25:28;;;;;;;10.65;4.47;;;;;;;12.59;100.00;102154.56;5093916;28;20136;-72
2023/10/01 03:27:58;;;;;;;10.50;4.20;;;;;;;12.61;100.00;102156.25;5094041;28;20024;-72
2023/10/01 03:30:24;;;;;;;8.80;5.97;;;;;;;12.45;100.00;102160.19;5095197;28;20059;-72
2023/10/01 03:32:49;;;;;;;10.95;6.32;;;;;;;12.43;100.00;102160.38;5080554;28;20059;-72
2023/10/01 03:35:20;;;;;;;10.48;6.35;;;;;;;12.35;100.00;102152.41;5090986;28;20032;-72
2023/10/01 03:38:08;;;;;;;11.93;6.63;;;;;;;12.37;100.00;102153.06;5095228;28;20026;-73
2023/10/01 03:40:36;;;;;;;9.48;6.13;;;;;;;12.35;100.00;102147.84;5094682;28;20501;-72
2023/10/01 03:43:04;;;;;;;7.45;3.97;;;;;;;12.50;100.00;102150.38;5094872;28;20081;-73
2023/10/01 03:47:58;;;;;;;11.00;6.35;;;;;;;12.33;100.00;102146.34;5087536;28;20072;-72
2023/10/01 03:50:25;;;;;;;11.50;6.38;;;;;;;12.32;100.00;102150.97;5083117;28;20051;-72
2023/10/01 03:52:54;;;;;;;9.07;5.82;;;;;;;12.32;100.00;102144.69;5094792;28;20039;-71
2023/10/01 03:58:06;;;;;;;9.88;6.45;;;;;;;12.29;100.00;102151.38;5074186;28;20044;-72
2023/10/01 04:00:41;;;;;;;10.07;6.40;;;;;;;12.21;100.00;102149.69;5071880;28;20039;-72
2023/10/01 04:03:13;;;;;;;8.02;6.10;;;;;;;12.18;100.00;102154.66;5074040;28;20115;-72
2023/10/01 04:05:44;;;;;;;10.23;5.95;;;;;;;12.22;100.00;102145.91;5074123;28;20063;-71
2023/10/01 04:08:16;;;;;;;9.70;6.15;;;;;;;12.21;100.00;102146.13;5092425;28;20110;-71
2023/10/01 04:10:43;;;;;;;12.00;6.55;;;;;;;12.22;100.00;102142.38;5093183;28;20383;-71
2023/10/01 04:13:27;;;;;;;9.13;6.07;;;;;;;12.29;100.00;102137.81;5094697;28;20044;-72
2023/10/01 04:15:56;;;;;;;8.25;3.78;;;;;;;12.43;100.00;102145.97;5094090;28;20099;-72
2023/10/01 04:18:23;;;;;;;10.57;6.45;;;;;;;12.32;100.00;102140.09;5085767;28;20032;-71
2023/10/01 04:23:30;;;;;;;9.98;6.05;;;;;;;12.31;100.00;102141.13;5091630;28;20040;-71
2023/10/01 04:26:04;;;;;;;9.35;6.40;;;;;;;12.30;100.00;102136.75;5093996;28;20081;-71
2023/10/01 04:28:44;;;;;;;12.32;6.97;;;;;;;12.24;100.00;102145.69;5093896;28;20123;-73
2023/10/01 04:31:19;;;;;;;10.95;6.38;;;;;;;12.18;100.00;102143.81;5094131;28;20546;-72
2023/10/01 04:33:49;;;;;;;10.73;6.65;;;;;;;12.24;100.00;102151.13;5080159;28;20028;-71
2023/10/01 04:36:20;;;;;;;12.00;6.50;;;;;;;12.25;100.00;102149.28;5073582;28;20029;-71
2023/10/01 04:38:48;;;;;;;10.75;6.55;;;;;;;12.20;100.00;102144.47;5092395;28;20448;-72
2023/10/01 04:41:18;;;;;;;12.52;6.53;;;;;;;12.16;100.00;102137.75;5073914;28;20032;-71
2023/10/01 04:44:06;;;;;;;11.93;6.90;;;;;;;12.26;100.00;102126.50;5073224;28;20451;-72
2023/10/01 04:46:37;;;;;;;11.88;6.97;;;;;;;12.25;100.00;102135.69;5072178;28;20119;-72
2023/10/01 04:49:26;;;;;;;11.60;4.10;;;;;;;12.41;100.00;102140.75;5071839;28;20471;-72
2023/10/01 04:51:53;;;;;;;9.57;6.53;;;;;;;12.14;100.00;102146.09;5073214;28;20037;-72
2023/10/01 04:54:21;;;;;;;11.20;6.57;;;;;;;12.18;100.00;102135.66;5073089;28;20020;-72
2023/10/01 04:56:48;;;;;;;9.75;6.70;;;;;;;12.18;100.00;102143.81;5071240;28;20150;-72
2023/10/01 04:59:15;;;;;;;10.65;6.05;;;;;;;12.14;100.00;102143.41;5073173;28;20048;-72
2023/10/01 05:01:40;;;;;;;13.10;7.57;;;;;;;12.05;100.00;102141.91;5074120;28;20028;-72
2023/10/01 05:04:05;;;;;;;10.18;6.13;;;;;;;12.05;100.00;102136.47;5071906;28;20032;-72
2023/10/01 05:06:31;;;;;;;10.48;4.38;;;;;;;12.27;100.00;102147.19;5072777;28;20039;-72
2023/10/01 05:08:58;;;;;;;10.82;6.72;;;;;;;12.15;100.00;102142.34;5072549;28;20472;-71
2023/10/01 05:11:29;;;;;;;10.77;6.82;;;;;;;12.15;100.00;102146.94;5072754;28;20045;-71
2023/10/01 05:13:58;;;;;;;11.13;4.25;;;;;;;12.30;100.00;102147.59;5071549;28;20046;-72
2023/10/01 05:16:31;;;;;;;8.98;6.38;;;;;;;12.17;100.00;102145.69;5072667;28;20146;-72
2023/10/01 05:19:09;;;;;;;11.30;7.00;;;;;;;12.11;100.00;102138.38;5072648;28;20078;-71
2023/10/01 05:21:49;;;;;;;11.52;6.70;;;;;;;12.14;100.00;102140.69;5072756;28;20024;-71
2023/10/01 05:24:34;;;;;;;10.98;7.05;;;;;;;12.08;100.00;102143.34;5082780;28;20386;-71
2023/10/01 05:27:02;;;;;;;12.60;7.07;;;;;;;12.12;100.00;102144.63;5091312;28;20064;-71
2023/10/01 05:29:28;;;;;;;9.90;4.57;;;;;;;12.27;100.00;102149.91;5092645;28;20028;-71
2023/10/01 05:31:55;;;;;;;10.75;6.97;;;;;;;12.11;100.00;102157.38;5090448;28;20035;-71
2023/10/01 05:34:25;;;;;;;12.73;6.97;;;;;;;12.11;100.00;102156.50;5092683;28;20111;-71
2023/10/01 05:36:52;;;;;;;13.20;6.78;;;;;;;12.12;100.00;102148.16;5091215;28;20028;-72
2023/10/01 05:39:23;;;;;;;11.70;6.88;;;;;;;12.07;100.00;102163.41;5092825;28;20036;-72
2023/10/01 05:41:49;;;;;;;7.63;3.80;;;;;;;12.25;100.00;102157.41;5092109;28;20085;-72
2023/10/01 05:44:15;;;;;;;8.60;4.00;;;;;;;12.28;100.00;102165.16;5091487;28;20038;-72
2023/10/01 05:46:40;;;;;;;11.65;7.35;;;;;;;12.15;100.00;102174.06;5089265;28;20032;-72
2023/10/01 05:49:05;;;;;;;14.85;7.45;;;;;;;12.15;100.00;102174.91;5092690;28;20463;-71
2023/10/01 05:51:42;;;;;;;14.23;7.25;;;;;;;12.09;100.00;102167.56;5092707;28;20114;-72
2023/10/01 05:54:07;;;;;;;9.98;6.80;;;;;;;12.02;100.00;102172.97;5092728;28;20028;-71
2023/10/01 05:56:43;;;;;;;12.85;7.05;;;;;;;11.98;100.00;102162.72;5092577;28;20134;-72
2023/10/01 05:59:10;;;;;;;14.10;7.30;;;;;;;12.04;100.00;102153.78;5092632;28;20101;-72
2023/10/01 06:01:39;;;;;;;11.07;6.80;;;;;;;12.02;100.00;102145.84;5088339;28;20031;-72
2023/10/01 06:04:09;;;;;;;11.60;7.15;;;;;;;12.10;100.00;102154.84;5092565;28;20467;-72
2023/10/01 06:06:36;;;;;;;13.23;7.38;;;;;;;12.11;100.00;102153.78;5091274;28;20500;-72
2023/10/01 06:09:03;;;;;;;12.82;6.97;;;;;;;12.13;100.00;102163.41;5094779;28;20525;-71
2023/10/01 06:11:38;;;;;;;12.13;7.07;;;;;;;12.12;100.00;102156.31;5096351;28;20564;-72
2023/10/01 06:14:08;;;;;;;10.85;7.28;;;;;;;12.15;100.00;102165.94;5095305;28;20032;-71
2023/10/01 06:16:39;;;;;;;11.50;6.82;;;;;;;12.15;100.00;102166.78;5090076;28;20111;-71
2023/10/01 06:19:11;;;;;;;13.73;7.43;;;;;;;12.20;100.00;102167.00;5076297;28;20029;-72
2023/10/01 06:21:39;;;;;;;16.05;4.20;;;;;;;12.37;100.00;102166.63;5075971;28;20033;-71
2023/10/01 06:24:07;;;;;;;11.85;7.07;;;;;;;12.26;100.00;102157.22;5076264;28;20024;-72
2023/10/01 06:26:36;;;;;;;13.88;6.93;;;;;;;12.35;100.00;102160.56;5074842;28;20024;-71
2023/10/01 06:29:02;;;;;;;11.65;7.32;;;;;;;12.33;100.00;102166.19;5074565;28;20079;-72
2023/10/01 06:31:29;;;;;;;12.07;7.13;;;;;;;12.36;100.00;102164.94;5089710;28;20028;-71
2023/10/01 06:33:55;;;;;;;15.70;7.30;;;;;;;12.41;100.00;102157.03;5095747;28;20372;-71
2023/10/01 06:36:21;;;;;;;13.15;7.28;;;;;;;12.43;100.00;102152.25;5096421;28;20035;-71
2023/10/01 06:38:48;;;;;;;13.48;7.40;;;;;;;12.49;100.00;102164.97;5096004;28;20452;-70
2023/10/01 06:41:18;;;;;;;8.52;3.83;;;;;;;12.63;100.00;102175.88;5096042;28;20077;-71
2023/10/01 06:43:54;;;;;;;12.88;7.00;;;;;;;12.57;100.00;102167.50;5095947;28;20028;-71
2023/10/01 06:46:30;;;;;;;11.80;7.15;;;;;;;12.66;100.00;102156.44;5087328;28;20039;-71
2023/10/01 06:49:03;;;;;;;13.32;7.40;;;;;;;12.67;100.00;102160.84;5074198;28;20043;-71
2023/10/01 06:51:37;;;;;;;12.80;7.57;;;;;;;12.73;100.00;102166.28;5086679;28;20051;-72
2023/10/01 06:54:05;;;;;;;13.18;7.53;;;;;;;12.74;100.00;102154.38;5075638;28;20040;-71
2023/10/01 06:56:33;;;;;;;11.10;7.15;;;;;;;12.79;100.00;102147.47;5075472;28;20033;-72
2023/10/01 07:01:42;;;;;;;11.98;7.50;;;;;;;12.87;100.00;102164.41;5073105;28;20098;-72
2023/10/01 07:04:15;;;;;;;14.40;8.15;;;;;;;12.93;100.00;102143.72;5076638;28;20032;-73
2023/10/01 07:06:44;;;;;;;13.18;7.53;;;;;;;12.98;100.00;102148.53;5095809;28;20032;-73
2023/10/01 07:09:24;;;;;;;14.20;8.45;;;;;;;13.04;100.00;102139.53;5095357;28;20039;-73
2023/10/01 07:11:52;;;;;;;12.67;7.60;;;;;;;13.08;100.00;102138.91;5095039;28;20091;-73
2023/10/01 07:14:29;;;;;;;12.93;7.63;;;;;;;13.15;100.00;102143.50;5092779;28;20028;-73
2023/10/01 07:16:55;;;;;;;11.02;7.38;;;;;;;13.22;100.00;102147.06;5073766;28;20032;-73
2023/10/01 07:19:21;;;;;;;13.02;7.57;;;;;;;13.27;100.00;102150.81;5081359;28;20036;-73
2023/10/01 07:21:56;;;;;;;12.73;7.80;;;;;;;13.30;100.00;102160.44;5093889;28;20026;-74
2023/10/01 07:24:30;;;;;;;12.38;7.72;;;;;;;13.36;100.00;102156.06;5094140;28;20035;-74
2023/10/01 07:27:03;;;;;;;10.95;7.22;;;;;;;13.43;100.00;102165.88;5095026;28;20028;-74
2023/10/01 07:29:42;;;;;;;10.80;4.20;;;;;;;13.51;100.00;102156.63;5093982;28;20062;-74
2023/10/01 07:32:08;;;;;;;13.20;7.97;;;;;;;13.53;100.00;102160.00;5095050;28;20032;-74
2023/10/01 07:34:39;;;;;;;11.43;5.00;;;;;;;13.63;100.00;102164.97;5081834;28;20119;-74
2023/10/01 07:37:05;;;;;;;13.23;8.05;;;;;;;13.64;100.00;102167.50;5082744;28;20518;-74
2023/10/01 07:39:32;;;;;;;15.27;8.40;;;;;;;13.71;100.00;102164.78;5094141;28;20064;-74
2023/10/01 07:41:59;;;;;;;13.43;8.32;;;;;;;13.78;100.00;102164.75;5094933;28;20028;-74
2023/10/01 07:44:27;;;;;;;12.90;7.50;;;;;;;13.80;100.00;102171.66;5094960;28;20039;-74
2023/10/01 07:46:52;;;;;;;13.65;8.13;;;;;;;13.89;100.00;102169.53;5094755;28;20028;-74
2023/10/01 07:49:19;;;;;;;13.98;8.10;;;;;;;13.95;100.00;102174.09;5083414;28;20512;-74
2023/10/01 07:51:44;;;;;;;14.90;7.75;;;;;;;14.01;100.00;102177.88;5088318;28;20111;-73
2023/10/01 07:54:10;;;;;;;13.65;8.20;;;;;;;14.06;100.00;102177.22;5094858;28;20112;-74
2023/10/01 07:56:48;;;;;;;14.35;8.25;;;;;;;14.14;100.00;102179.69;5094950;28;20028;-74
2023/10/01 07:59:28;;;;;;;14.32;7.95;;;;;;;14.24;100.00;102177.34;5085968;28;20519;-78
2023/10/01 08:07:15;;;;;;;17.02;8.98;;;;;;;14.44;100.00;102179.13;5093875;28;20040;-75
2023/10/01 08:09:51;;;;;;;15.95;8.82;;;;;;;14.51;100.00;102177.19;5094065;28;20062;-75
2023/10/01 08:15:29;;;;;;;14.55;7.82;;;;;;;14.66;100.00;102160.53;5092341;28;20042;-73
2023/10/01 08:17:54;;;;;;;12.25;5.15;;;;;;;14.72;100.00;102173.31;5093364;28;20028;-72
2023/10/01 08:20:31;;;;;;;13.75;8.30;;;;;;;14.78;100.00;102172.44;5090964;28;20438;-72
2023/10/01 08:23:23;;;;;;;14.52;8.40;;;;;;;14.86;100.00;102182.22;5092408;28;20040;-73
2023/10/01 08:25:51;;;;;;;13.90;8.40;;;;;;;14.96;100.00;102182.56;5093179;28;20536;-73
2023/10/01 08:30:49;;;;;;;13.57;8.43;;;;;;;15.04;100.00;102190.47;5092417;28;20047;-71
2023/10/01 08:33:26;;;;;;;14.93;8.48;;;;;;;15.13;100.00;102190.19;5093390;28;20028;-70
2023/10/01 08:36:01;;;;;;;14.13;8.80;;;;;;;15.21;100.00;102189.91;5079604;28;20036;-72
2023/10/01 08:38:36;;;;;;;13.25;8.13;;;;;;;15.30;100.00;102193.19;5081812;28;20032;-71
2023/10/01 08:41:03;;;;;;;14.27;8.38;;;;;;;15.37;100.00;102200.25;5086465;28;20036;-71
2023/10/01 08:43:35;;;;;;;14.35;8.10;;;;;;;15.47;100.00;102202.44;5073150;28;20037;-69
2023/10/01 08:46:19;;;;;;;13.65;8.23;;;;;;;15.52;100.00;102194.44;5073123;28;20036;-69
2023/10/01 08:48:45;;;;;;;15.00;8.30;;;;;;;15.58;100.00;102187.25;5073568;28;20024;-71
2023/10/01 08:51:12;;;;;;;14.43;8.43;;;;;;;15.65;100.00;102185.28;5072586;28;20037;-72
2023/10/01 08:53:51;;;;;;;16.27;8.25;;;;;;;15.80;100.00;102197.75;5073139;28;20024;-69
2023/10/01 08:56:32;;;;;;;14.45;8.93;;;;;;;15.84;100.00;102191.63;5072873;28;20027;-71
2023/10/01 08:58:59;;;;;;;14.52;8.52;;;;;;;15.92;100.00;102194.03;5072872;28;20039;-70
2023/10/01 09:01:29;;;;;;;14.73;8.50;;;;;;;16.01;100.00;102205.47;5075667;28;20447;-70
2023/10/01 09:03:57;;;;;;;14.98;8.60;;;;;;;16.05;100.00;102203.16;5091789;28;20063;-69
2023/10/01 09:06:26;;;;;;;13.20;8.75;;;;;;;16.12;100.00;102196.53;5076436;28;20086;-73
2023/10/01 09:08:55;;;;;;;15.32;8.65;;;;;;;16.27;100.00;102198.00;5090673;28;20081;-72
2023/10/01 09:11:35;;;;;;;15.07;8.40;;;;;;;16.27;100.00;102198.00;5092761;28;20548;-73
2023/10/01 09:14:25;;;;;;;16.00;9.15;;;;;;;16.37;100.00;102189.28;5092947;28;20028;-70
2023/10/01 09:16:57;;;;;;;14.10;8.55;;;;;;;16.44;100.00;102195.47;5092799;28;20066;-71
2023/10/01 09:19:31;;;;;;;14.88;8.52;;;;;;;16.48;100.00;102189.31;5088806;28;20060;-74
2023/10/01 09:22:15;;;;;;;15.55;8.68;;;;;;;16.54;100.00;102190.28;5088962;28;20452;-75
2023/10/01 09:24:43;;;;;;;15.18;8.70;;;;;;;16.57;100.00;102175.34;5087816;28;20042;-76
2023/10/01 09:27:18;;;;;;;14.13;8.40;;;;;;;16.60;100.00;102178.41;5090264;28;20020;-75
2023/10/01 09:29:45;;;;;;;14.02;8.05;;;;;;;16.65;100.00;102177.72;5088732;28;20391;-75
2023/10/01 09:32:13;;;;;;;15.30;8.32;;;;;;;16.74;100.00;102170.88;5090806;28;20484;-76
2023/10/01 09:34:53;;;;;;;18.95;8.90;;;;;;;16.83;100.00;102171.34;5089534;28;20032;-76
2023/10/01 09:37:34;;;;;;;13.68;8.23;;;;;;;16.88;100.00;102159.72;5092332;28;20031;-75
2023/10/01 09:40:32;;;;;;;11.68;8.00;;;;;;;16.96;100.00;102168.44;5095316;28;20383;-75
2023/10/01 09:43:03;;;;;;;14.85;8.35;;;;;;;17.06;100.00;102167.88;5087624;28;20363;-75
2023/10/01 09:45:39;;;;;;;15.98;8.50;;;;;;;17.12;100.00;102171.53;5089122;28;20058;-75
2023/10/01 09:48:23;;;;;;;13.85;8.13;;;;;;;17.12;100.00;102166.91;5092412;28;20031;-75
2023/10/01 09:50:54;;;;;;;14.23;8.18;;;;;;;17.35;100.00;102168.00;5091256;28;20035;-78
2023/10/01 09:53:26;;;;;;;15.25;8.30;;;;;;;17.41;100.00;102169.78;5091274;28;20076;-81
2023/10/01 09:55:56;;;;;;;14.85;8.55;;;;;;;17.46;100.00;102169.88;5090955;28;20119;-75
2023/10/01 09:58:28;;;;;;;14.57;8.05;;;;;;;17.57;100.00;102164.63;5090451;28;20031;-76
2023/10/01 10:01:01;;;;;;;13.57;8.05;;;;;;;17.66;100.00;102165.94;5087055;28;20101;-71
2023/10/01 10:03:38;;;;;;;14.38;8.75;;;;;;;17.67;100.00;102165.69;5092491;28;20382;-70
2023/10/01 10:06:07;;;;;;;13.82;8.10;;;;;;;17.72;100.00;102159.47;5087671;28;20040;-72
2023/10/01 10:08:40;;;;;;;15.68;8.60;;;;;;;17.86;100.00;102169.09;5077467;28;20107;-71
2023/10/01 10:11:13;;;;;;;12.55;7.75;;;;;;;17.99;100.00;102156.25;5086937;28;20031;-71
2023/10/01 10:13:46;;;;;;;14.80;7.97;;;;;;;18.00;100.00;102166.13;5084841;28;20039;-71
2023/10/01 10:16:32;;;;;;;12.95;7.55;;;;;;;18.10;100.00;102163.59;5090450;28;20387;-71
2023/10/01 10:19:06;;;;;;;13.45;7.80;;;;;;;18.18;100.00;102165.94;5091773;28;20111;-72
2023/10/01 10:24:45;;;;;;;14.40;7.57;;;;;;;18.43;100.00;102159.28;5091295;28;20479;-71
2023/10/01 10:27:18;;;;;;;17.60;7.95;;;;;;;18.44;100.00;102158.19;5087060;28;20068;-70
2023/10/01 10:29:56;;;;;;;13.93;7.78;;;;;;;18.52;100.00;102151.47;5088812;28;20540;-70
2023/10/01 10:32:31;;;;;;;12.52;7.85;;;;;;;18.53;100.00;102150.41;5087918;28;20023;-70
2023/10/01 10:35:06;;;;;;;14.23;7.70;;;;;;;18.63;100.00;102147.84;5090999;28;20395;-70
2023/10/01 10:37:37;;;;;;;12.25;7.60;;;;;;;18.79;100.00;102148.94;5089847;28;20414;-70
2023/10/01 10:40:22;;;;;;;12.93;7.70;;;;;;;18.75;100.00;102142.28;5084176;28;20028;-70
2023/10/01 10:42:47;;;;;;;13.60;8.00;;;;;;;18.85;100.00;102139.75;5088645;28;20069;-69
2023/10/01 10:45:22;;;;;;;13.03;7.77;;;;;;;19.00;100.00;102143.81;5091292;28;20031;-71
2023/10/01 10:48:04;;;;;;;14.00;7.80;;;;;;;19.08;100.00;102151.63;5090895;28;21258;-71
2023/10/01 10:50:53;;;;;;;14.30;8.10;;;;;;;19.10;100.00;102150.28;5088189;28;20023;-71
2023/10/01 10:53:20;;;;;;;14.60;8.00;;;;;;;19.16;100.00;102139.38;5086857;28;20043;-70
2023/10/01 10:56:06;;;;;;;14.15;7.88;;;;;;;19.19;100.00;102137.00;5094920;28;20027;-70
2023/10/01 10:58:43;;;;;;;13.75;7.13;;;;;;;19.26;100.00;102137.66;5095019;28;20468;-70
2023/10/01 11:01:22;;;;;;;14.90;8.27;;;;;;;19.37;100.00;102144.09;5091516;28;20039;-70
2023/10/01 11:03:56;;;;;;;12.40;7.63;;;;;;;19.52;100.00;102143.50;5086285;28;20440;-70
2023/10/01 11:06:39;;;;;;;14.68;7.78;;;;;;;19.58;100.00;102139.72;5094100;28;20032;-70
2023/10/01 11:09:30;;;;;;;13.80;7.85;;;;;;;19.57;100.00;102143.56;5094639;28;20024;-70
2023/10/01 11:11:58;;;;;;;;;;;;;;;19.60;100.00;102143.03;5094665;28;20521;-70
2023/10/01 11:14:25;;;;;;;13.73;7.82;;;;;;;19.69;100.00;102137.94;5094695;28;19923;-71
2023/10/01 11:16:50;;;;;;;13.35;7.90;;;;;;;19.72;100.00;102136.59;5095010;28;20012;-70
2023/10/01 11:19:20;;;;;;;14.77;7.03;;;;;;;19.85;100.00;102138.97;5088511;28;20066;-71
2023/10/01 11:21:55;;;;;;;12.05;7.70;;;;;;;19.92;100.00;102134.13;5091694;28;20051;-72
2023/10/01 11:24:31;;;;;;;13.50;8.20;;;;;;;19.98;100.00;102138.59;5080972;28;20115;-72
2023/10/01 11:27:15;;;;;;;15.05;8.20;;;;;;;20.03;100.00;102129.56;5082775;28;20103;-68
2023/10/01 11:30:12;;;;;;;12.43;7.60;;;;;;;20.12;100.00;102121.69;5090293;28;20070;-71
2023/10/01 11:35:38;;;;;;;14.55;8.00;;;;;;;20.16;100.00;102122.84;5088365;28;20035;-70
2023/10/01 11:38:07;;;;;;;12.25;7.75;;;;;;;20.23;100.00;102122.63;5094228;28;20031;-71
2023/10/01 11:43:32;;;;;;;13.82;7.88;;;;;;;20.39;100.00;102110.69;5094591;28;20054;-72
2023/10/01 11:46:21;;;;;;;13.07;7.05;;;;;;;20.58;100.00;102113.06;5090673;28;20024;-70
2023/10/01 11:49:09;;;;;;;13.27;7.40;;;;;;;20.65;100.00;102108.16;5088602;28;20092;-71
2023/10/01 11:51:45;;;;;;;13.82;8.32;;;;;;;20.72;100.00;102108.81;5075481;28;20506;-71
2023/10/01 11:54:12;;;;;;;14.05;8.02;;;;;;;20.82;100.00;102108.06;5087120;28;20062;-71
2023/10/01 11:56:46;;;;;;;14.52;8.07;;;;;;;20.83;100.00;102104.22;5085553;28;20425;-70
2023/10/01 11:59:19;;;;;;;15.82;8.63;;;;;;;20.91;100.00;102105.66;5076964;28;20042;-71
2023/10/01 12:01:47;;;;;;;12.32;7.82;;;;;;;20.93;100.00;102098.78;5074200;28;20078;-70
2023/10/01 12:07:17;;;;;;;13.50;8.27;;;;;;;20.95;100.00;102090.28;5077556;28;20114;-73
2023/10/01 12:09:51;;;;;;;12.38;7.68;;;;;;;20.99;100.00;102081.22;5094308;28;20035;-73
2023/10/01 12:12:39;;;;;;;11.65;7.85;;;;;;;21.05;100.00;102069.16;5093879;28;20480;-74
2023/10/01 12:17:55;;;;;;;12.68;7.72;;;;;;;21.22;100.00;102068.16;5092887;28;20105;-74